Time;durP1;ratioP1;P1;durP2;ratioP2;P2;SDS_P1;SDS_P2;PMS_P1;PMS_P2;Temp;Humidity;BMP_temperature;BMP_pressure;BME280_temperature;BME280_humidity;BME280_pressure;Samples;Min_cycle;Max_cycle;Signal;HPM_P1;HPM_P2
2023/09/20 00:01:50;;;;;;;;;;;16.70;80.10;;;;;;4157362;28;19917;-81
2023/09/20 00:03:51;;;;;;;;;;;16.70;80.00;;;;;;4158695;28;19913;-82
2023/09/20 00:05:53;;;;;;;;;;;16.70;80.00;;;;;;4157640;28;19921;-81
2023/09/20 00:07:57;;;;;;;;;;;16.60;79.90;;;;;;4143689;28;19914;-83
2023/09/20 00:09:58;;;;;;;;;;;16.70;80.00;;;;;;4142481;28;20409;-82
2023/09/20 00:11:58;;;;;;;;;;;16.70;80.00;;;;;;4141098;28;19913;-82
2023/09/20 00:13:59;;;;;;;;;;;16.70;80.10;;;;;;4154277;28;20314;-82
2023/09/20 00:16:00;;;;;;;;;;;16.70;80.00;;;;;;4139052;28;20462;-81
2023/09/20 00:18:01;;;;;;;;;;;16.60;80.00;;;;;;4142351;28;19925;-83
2023/09/20 00:20:14;;;;;;;;;;;16.60;80.10;;;;;;4151616;28;20478;-80
2023/09/20 00:22:15;;;;;;;;;;;16.60;80.10;;;;;;4159338;28;20004;-82
2023/09/20 00:24:16;;;;;;;;;;;16.60;80.10;;;;;;4155357;28;19917;-80
2023/09/20 00:26:18;;;;;;;;;;;16.60;80.80;;;;;;4141747;28;19921;-82
2023/09/20 00:28:18;;;;;;;;;;;16.60;80.10;;;;;;4159096;28;19960;-81
2023/09/20 00:30:19;;;;;;;;;;;16.60;80.10;;;;;;4145972;28;19914;-81
2023/09/20 00:32:21;;;;;;;;;;;16.60;80.20;;;;;;4160937;28;19913;-81
2023/09/20 00:34:21;;;;;;;;;;;16.60;80.10;;;;;;4150809;28;19917;-81
2023/09/20 00:36:23;;;;;;;;;;;16.60;80.20;;;;;;4158372;28;19925;-82
2023/09/20 00:38:24;;;;;;;;;;;16.60;80.20;;;;;;4159024;28;19975;-81
2023/09/20 00:40:28;;;;;;;;;;;16.70;80.40;;;;;;4153998;28;19931;-79
2023/09/20 00:42:49;;;;;;;;;;;16.60;80.20;;;;;;4154959;28;20234;-81
2023/09/20 00:45:13;;;;;;;;;;;16.50;80.20;;;;;;4155401;28;19921;-80
2023/09/20 00:47:34;;;;;;;;;;;16.60;80.40;;;;;;4160885;28;19928;-82
2023/09/20 00:49:55;;;;;;;;;;;16.60;80.70;;;;;;4149117;28;20070;-81
2023/09/20 00:51:56;;;;;;;;;;;16.60;80.40;;;;;;4141722;28;20358;-80
2023/09/20 00:53:58;;;;;;;;;;;16.60;80.50;;;;;;4156494;28;19924;-80
2023/09/20 00:55:59;;;;;;;;;;;16.50;80.50;;;;;;4160111;28;19927;-82
2023/09/20 00:58:03;;;;;;;;;;;16.60;80.50;;;;;;4156823;28;19921;-80
2023/09/20 01:00:19;;;;;;;;;;;16.50;80.70;;;;;;4138232;28;19914;-80
2023/09/20 01:02:20;;;;;;;;;;;16.60;80.80;;;;;;4145408;28;19940;-82
2023/09/20 01:04:20;;;;;;;;;;;16.60;80.80;;;;;;4143023;28;20400;-79
2023/09/20 01:06:22;;;;;;;;;;;16.60;80.70;;;;;;4154270;28;20381;-81
2023/09/20 01:08:23;;;;;;;;;;;16.50;80.80;;;;;;4124362;28;19914;-82
2023/09/20 01:10:27;;;;;;;;;;;16.60;81.40;;;;;;4138135;28;19973;-82
2023/09/20 01:12:28;;;;;;;;;;;16.60;81.00;;;;;;4144812;28;19920;-81
2023/09/20 01:14:28;;;;;;;;;;;16.50;81.00;;;;;;4134690;28;19925;-78
2023/09/20 01:16:29;;;;;;;;;;;16.50;81.00;;;;;;4141163;28;19925;-80
2023/09/20 01:18:29;;;;;;;;;;;16.60;81.20;;;;;;4163299;28;19957;-81
2023/09/20 01:20:33;;;;;;;;;;;16.60;81.10;;;;;;4159946;28;20042;-82
2023/09/20 01:22:34;;;;;;;;;;;16.60;81.10;;;;;;4153746;28;19918;-82
2023/09/20 01:24:35;;;;;;;;;;;16.60;81.20;;;;;;4160357;28;20043;-83
2023/09/20 01:26:38;;;;;;;;;;;16.60;81.30;;;;;;4148473;28;19921;-81
2023/09/20 01:28:39;;;;;;;;;;;16.60;81.40;;;;;;4161093;28;19913;-81
2023/09/20 01:30:41;;;;;;;;;;;16.60;81.40;;;;;;4146557;28;20376;-78
2023/09/20 01:32:42;;;;;;;;;;;16.60;81.60;;;;;;4165151;28;19920;-80
2023/09/20 01:34:43;;;;;;;;;;;16.60;81.70;;;;;;4165038;28;19917;-84
2023/09/20 01:36:43;;;;;;;;;;;16.50;81.50;;;;;;4163821;28;19947;-82
2023/09/20 01:38:44;;;;;;;;;;;16.60;81.60;;;;;;4172971;28;19917;-80
2023/09/20 01:40:46;;;;;;;;;;;16.60;81.70;;;;;;4149790;28;19922;-78
2023/09/20 01:42:50;;;;;;;;;;;16.70;81.70;;;;;;4160621;28;19936;-78
2023/09/20 01:44:51;;;;;;;;;;;16.60;81.50;;;;;;4154577;28;19921;-82
2023/09/20 01:46:51;;;;;;;;;;;16.60;81.50;;;;;;4163654;28;20020;-83
2023/09/20 01:48:53;;;;;;;;;;;16.60;81.60;;;;;;4169199;28;19936;-82
2023/09/20 01:50:54;;;;;;;;;;;16.60;81.70;;;;;;4132268;28;19946;-82
2023/09/20 01:52:55;;;;;;;;;;;16.60;81.60;;;;;;4158999;28;19909;-80
2023/09/20 01:54:57;;;;;;;;;;;16.60;81.60;;;;;;4161793;28;19977;-81
2023/09/20 01:56:57;;;;;;;;;;;16.60;81.60;;;;;;4165613;28;19917;-82
2023/09/20 01:58:59;;;;;;;;;;;16.60;81.60;;;;;;4157970;28;20496;-82
2023/09/20 02:01:00;;;;;;;;;;;16.60;81.70;;;;;;4162256;28;19944;-80
2023/09/20 02:03:05;;;;;;;;;;;16.70;81.80;;;;;;4161637;28;20490;-82
2023/09/20 02:05:09;;;;;;;;;;;16.70;81.70;;;;;;4161919;28;20405;-83
2023/09/20 02:07:11;;;;;;;;;;;16.60;81.70;;;;;;4146588;28;19924;-82
2023/09/20 02:09:12;;;;;;;;;;;16.70;81.70;;;;;;4163622;28;19917;-81
2023/09/20 02:11:13;;;;;;;;;;;16.70;81.90;;;;;;4132252;28;19914;-83
2023/09/20 02:13:15;;;;;;;;;;;16.60;81.70;;;;;;4167162;28;19915;-82
2023/09/20 02:15:16;;;;;;;;;;;16.60;81.70;;;;;;4164354;28;19927;-83
2023/09/20 02:17:18;;;;;;;;;;;16.70;81.70;;;;;;4136487;28;19928;-82
2023/09/20 02:19:38;;;;;;;;;;;16.60;81.70;;;;;;4164852;28;19917;-82
2023/09/20 02:21:40;;;;;;;;;;;16.70;81.70;;;;;;4147591;28;19929;-81
2023/09/20 02:24:01;;;;;;;;;;;16.70;81.70;;;;;;4161893;28;19921;-82
2023/09/20 02:26:22;;;;;;;;;;;16.70;81.80;;;;;;4162091;28;19921;-82
2023/09/20 02:28:44;;;;;;;;;;;16.70;81.80;;;;;;4147888;28;19960;-80
2023/09/20 02:31:05;;;;;;;;;;;16.70;81.70;;;;;;4158073;28;19917;-80
2023/09/20 02:33:26;;;;;;;;;;;16.70;81.60;;;;;;4163301;28;19925;-81
2023/09/20 02:35:47;;;;;;;;;;;16.70;81.70;;;;;;4164489;28;19956;-81
2023/09/20 02:38:09;;;;;;;;;;;16.70;81.70;;;;;;4161758;28;19913;-80
2023/09/20 02:40:29;;;;;;;;;;;16.80;81.70;;;;;;4150683;28;19921;-82
2023/09/20 02:42:54;;;;;;;;;;;16.70;81.70;;;;;;4161259;28;19921;-81
2023/09/20 02:45:18;;;;;;;;;;;16.70;81.80;;;;;;4160560;28;19943;-82
2023/09/20 02:47:39;;;;;;;;;;;16.80;81.80;;;;;;4163320;28;19959;-82
2023/09/20 02:49:43;;;;;;;;;;;16.70;81.90;;;;;;4162333;28;19909;-80
2023/09/20 02:51:43;;;;;;;;;;;16.80;82.00;;;;;;4150415;28;19913;-81
2023/09/20 02:53:44;;;;;;;;;;;16.80;81.90;;;;;;4163826;28;20280;-81
2023/09/20 02:55:45;;;;;;;;;;;16.80;81.90;;;;;;4163477;28;19913;-80
2023/09/20 02:57:49;;;;;;;;;;;16.80;81.90;;;;;;4162862;28;20406;-80
2023/09/20 02:59:49;;;;;;;;;;;16.90;81.80;;;;;;4163573;28;19940;-81
2023/09/20 03:01:50;;;;;;;;;;;16.80;81.80;;;;;;4144265;28;19923;-81
2023/09/20 03:03:50;;;;;;;;;;;16.80;81.70;;;;;;4162422;28;20145;-81
2023/09/20 03:05:50;;;;;;;;;;;16.80;81.70;;;;;;4163349;28;19918;-81
2023/09/20 03:07:53;;;;;;;;;;;16.80;81.70;;;;;;4143508;28;20043;-79
2023/09/20 03:09:58;;;;;;;;;;;16.80;81.70;;;;;;4159584;28;19959;-81
2023/09/20 03:11:59;;;;;;;;;;;16.90;81.70;;;;;;4140692;28;19910;-79
2023/09/20 03:14:03;;;;;;;;;;;16.90;81.70;;;;;;4158817;28;19928;-80
2023/09/20 03:16:04;;;;;;;;;;;16.80;81.70;;;;;;4158025;28;19918;-81
2023/09/20 03:18:06;;;;;;;;;;;16.80;81.70;;;;;;4144169;28;20314;-80
2023/09/20 03:20:10;;;;;;;;;;;16.80;81.60;;;;;;4159961;28;19917;-81
2023/09/20 03:22:13;;;;;;;;;;;16.80;81.60;;;;;;4142575;28;19925;-80
2023/09/20 03:24:13;;;;;;;;;;;16.90;81.80;;;;;;4162396;28;19952;-81
2023/09/20 03:26:16;;;;;;;;;;;16.80;81.70;;;;;;4142782;28;20296;-80
2023/09/20 03:28:19;;;;;;;;;;;16.90;81.60;;;;;;4145232;28;19963;-80
2023/09/20 03:30:20;;;;;;;;;;;16.90;81.70;;;;;;4159796;28;19925;-82
2023/09/20 03:32:20;;;;;;;;;;;16.90;81.60;;;;;;4163955;28;20355;-79
2023/09/20 03:34:21;;;;;;;;;;;16.80;81.80;;;;;;4161179;28;20094;-80
2023/09/20 03:36:22;;;;;;;;;;;16.80;81.80;;;;;;4156601;28;19924;-82
2023/09/20 03:38:23;;;;;;;;;;;16.90;82.50;;;;;;4145663;28;19920;-81
2023/09/20 03:40:24;;;;;;;;;;;16.80;81.60;;;;;;4161370;28;19969;-80
2023/09/20 03:42:25;;;;;;;;;;;16.80;81.80;;;;;;4154574;28;19967;-81
2023/09/20 03:44:25;;;;;;;;;;;16.80;81.90;;;;;;4156852;28;20348;-81
2023/09/20 03:46:26;;;;;;;;;;;16.80;81.90;;;;;;4154448;28;20008;-81
2023/09/20 03:48:26;;;;;;;;;;;16.80;81.80;;;;;;4162085;28;19973;-82
2023/09/20 03:50:27;;;;;;;;;;;16.80;81.90;;;;;;4148110;28;20008;-79
2023/09/20 03:52:28;;;;;;;;;;;16.80;81.90;;;;;;4141901;28;20516;-81
2023/09/20 03:54:30;;;;;;;;;;;16.80;81.90;;;;;;4147884;28;19979;-80
2023/09/20 03:56:30;;;;;;;;;;;16.80;82.00;;;;;;4163000;28;20416;-80
2023/09/20 03:58:31;;;;;;;;;;;16.80;81.90;;;;;;4159348;28;19987;-80
2023/09/20 04:00:32;;;;;;;;;;;16.90;82.00;;;;;;4146857;28;19913;-80
2023/09/20 04:02:34;;;;;;;;;;;16.80;81.90;;;;;;4155854;28;19921;-80
2023/09/20 04:04:35;;;;;;;;;;;16.80;81.90;;;;;;4160516;28;20012;-82
2023/09/20 04:06:36;;;;;;;;;;;16.80;82.00;;;;;;4165066;28;20033;-81
2023/09/20 04:08:37;;;;;;;;;;;16.80;82.10;;;;;;4160982;28;20887;-81
2023/09/20 04:10:37;;;;;;;;;;;16.80;82.80;;;;;;4163536;28;19913;-80
2023/09/20 04:12:50;;;;;;;;;;;16.80;81.90;;;;;;4150635;28;20610;-81
2023/09/20 04:15:05;;;;;;;;;;;16.80;82.10;;;;;;4134281;28;20310;-81
2023/09/20 04:17:21;;;;;;;;;;;16.80;82.10;;;;;;4144072;28;20024;-80
2023/09/20 04:19:21;;;;;;;;;;;16.80;82.00;;;;;;4159947;28;19928;-81
2023/09/20 04:21:42;;;;;;;;;;;16.80;82.00;;;;;;4167081;28;19924;-79
2023/09/20 04:23:53;;;;;;;;;;;16.80;82.20;;;;;;4162241;28;19992;-79
2023/09/20 04:26:13;;;;;;;;;;;16.80;82.20;;;;;;4149551;28;19914;-80
2023/09/20 04:28:34;;;;;;;;;;;16.80;82.20;;;;;;4149139;28;19964;-80
2023/09/20 04:30:54;;;;;;;;;;;16.80;82.30;;;;;;4164698;28;20187;-80
2023/09/20 04:33:15;;;;;;;;;;;16.80;82.40;;;;;;4168855;28;20018;-82
2023/09/20 04:35:36;;;;;;;;;;;16.90;82.50;;;;;;4166413;28;19944;-81
2023/09/20 04:37:57;;;;;;;;;;;16.80;82.20;;;;;;4152250;28;19913;-80
2023/09/20 04:40:18;;;;;;;;;;;16.80;82.20;;;;;;4166754;28;19917;-81
2023/09/20 04:42:39;;;;;;;;;;;16.80;82.20;;;;;;4165615;28;19917;-81
2023/09/20 04:44:59;;;;;;;;;;;16.80;82.20;;;;;;4164435;28;19920;-81
2023/09/20 04:47:20;;;;;;;;;;;16.80;82.20;;;;;;4162280;28;19928;-82
2023/09/20 04:49:40;;;;;;;;;;;16.80;82.30;;;;;;4147593;28;19921;-80
2023/09/20 04:52:01;;;;;;;;;;;16.80;82.20;;;;;;4163973;28;20318;-80
2023/09/20 04:54:23;;;;;;;;;;;16.80;82.10;;;;;;4161538;28;20463;-81
2023/09/20 04:56:47;;;;;;;;;;;16.80;82.20;;;;;;4165142;28;19913;-81
2023/09/20 04:59:08;;;;;;;;;;;16.90;82.30;;;;;;4163417;28;19922;-79
2023/09/20 05:01:29;;;;;;;;;;;16.80;82.10;;;;;;4148307;28;19913;-80
2023/09/20 05:03:50;;;;;;;;;;;16.80;82.20;;;;;;4150537;28;19923;-81
2023/09/20 05:06:10;;;;;;;;;;;16.90;82.30;;;;;;4146044;28;19981;-80
2023/09/20 05:08:31;;;;;;;;;;;16.90;82.20;;;;;;4146409;28;19917;-83
2023/09/20 05:10:51;;;;;;;;;;;16.90;82.20;;;;;;4163911;28;19924;-80
2023/09/20 05:13:12;;;;;;;;;;;16.80;82.10;;;;;;4161115;28;19966;-80
2023/09/20 05:15:33;;;;;;;;;;;16.90;82.10;;;;;;4157811;28;20035;-85
2023/09/20 05:17:53;;;;;;;;;;;16.80;82.10;;;;;;4162416;28;19933;-83
2023/09/20 05:20:14;;;;;;;;;;;16.80;82.20;;;;;;4146345;28;19917;-83
2023/09/20 05:22:34;;;;;;;;;;;16.80;82.20;;;;;;4145694;28;20494;-83
2023/09/20 05:24:55;;;;;;;;;;;16.80;82.20;;;;;;4158039;28;20008;-82
2023/09/20 05:27:15;;;;;;;;;;;16.80;82.40;;;;;;4161870;28;19917;-83
2023/09/20 05:29:36;;;;;;;;;;;16.80;82.30;;;;;;4160881;28;19913;-84
2023/09/20 05:31:56;;;;;;;;;;;16.80;82.40;;;;;;4160319;28;19920;-83
2023/09/20 05:34:17;;;;;;;;;;;16.80;82.50;;;;;;4159415;28;19924;-83
2023/09/20 05:36:37;;;;;;;;;;;16.80;82.60;;;;;;4146705;28;19910;-83
2023/09/20 05:38:58;;;;;;;;;;;16.80;82.60;;;;;;4163664;28;19913;-82
2023/09/20 05:41:18;;;;;;;;;;;16.80;82.50;;;;;;4160625;28;19917;-83
2023/09/20 05:43:42;;;;;;;;;;;16.80;82.50;;;;;;4146174;28;19918;-82
2023/09/20 05:46:03;;;;;;;;;;;16.80;82.50;;;;;;4157581;28;19913;-82
2023/09/20 05:48:24;;;;;;;;;;;16.80;82.30;;;;;;4160302;28;19956;-83
2023/09/20 05:50:46;;;;;;;;;;;16.80;82.50;;;;;;4161970;28;20134;-84
2023/09/20 05:53:07;;;;;;;;;;;16.80;82.50;;;;;;4156351;28;20383;-83
2023/09/20 05:55:32;;;;;;;;;;;16.80;82.60;;;;;;4156057;28;19917;-84
2023/09/20 05:57:54;;;;;;;;;;;16.90;82.60;;;;;;4148284;28;19976;-83
2023/09/20 06:00:18;;;;;;;;;;;16.80;82.70;;;;;;4146811;28;19924;-83
2023/09/20 06:02:41;;;;;;;;;;;16.80;82.70;;;;;;4155797;28;19920;-83
2023/09/20 06:05:01;;;;;;;;;;;16.80;82.70;;;;;;4159917;28;20011;-83
2023/09/20 06:07:20;;;;;;;;;;;16.80;82.50;;;;;;4161857;28;19923;-82
2023/09/20 06:09:40;;;;;;;;;;;16.80;82.60;;;;;;4161868;28;19940;-83
2023/09/20 06:12:03;;;;;;;;;;;16.80;82.70;;;;;;4146303;28;19920;-83
2023/09/20 06:14:23;;;;;;;;;;;17.00;82.60;;;;;;4143306;28;20024;-83
2023/09/20 06:16:43;;;;;;;;;;;16.70;83.40;;;;;;4150533;28;19959;-82
2023/09/20 06:19:02;;;;;;;;;;;16.80;82.70;;;;;;4163735;28;20002;-83
2023/09/20 06:21:23;;;;;;;;;;;16.80;82.70;;;;;;4159680;28;19924;-84
2023/09/20 06:23:43;;;;;;;;;;;16.80;82.80;;;;;;4148023;28;19916;-84
2023/09/20 06:26:05;;;;;;;;;;;16.80;83.50;;;;;;4149973;28;20582;-83
2023/09/20 06:28:27;;;;;;;;;;;16.80;83.60;;;;;;4147859;28;20435;-83
2023/09/20 06:30:47;;;;;;;;;;;16.80;83.60;;;;;;4163868;28;20012;-83
2023/09/20 06:33:07;;;;;;;;;;;16.80;83.60;;;;;;4154168;28;20413;-82
2023/09/20 06:35:27;;;;;;;;;;;16.80;83.60;;;;;;4158290;28;19940;-83
2023/09/20 06:37:47;;;;;;;;;;;16.70;82.70;;;;;;4147973;28;19961;-83
2023/09/20 06:40:33;;;;;;;;;;;16.90;82.80;;;;;;4153096;28;19960;-83
2023/09/20 06:42:52;;;;;;;;;;;16.80;82.70;;;;;;4163105;28;20453;-83
2023/09/20 06:45:12;;;;;;;;;;;16.80;82.60;;;;;;4147808;28;19968;-82
2023/09/20 06:47:32;;;;;;;;;;;16.80;83.40;;;;;;4163440;28;20411;-81
2023/09/20 06:49:51;;;;;;;;;;;16.80;82.50;;;;;;4158531;28;19943;-83
2023/09/20 06:52:11;;;;;;;;;;;16.80;82.70;;;;;;4164442;28;19955;-82
2023/09/20 06:54:30;;;;;;;;;;;16.80;82.70;;;;;;4179789;28;20502;-83
2023/09/20 06:56:50;;;;;;;;;;;16.80;82.70;;;;;;4164519;28;19917;-83
2023/09/20 06:59:11;;;;;;;;;;;16.80;82.70;;;;;;4171403;28;19928;-82
2023/09/20 07:01:30;;;;;;;;;;;16.80;82.60;;;;;;4166775;28;20018;-82
2023/09/20 07:03:49;;;;;;;;;;;16.80;83.20;;;;;;4167687;28;19913;-83
2023/09/20 07:06:08;;;;;;;;;;;16.80;82.40;;;;;;4179864;28;19912;-83
2023/09/20 07:08:34;;;;;;;;;;;16.90;82.60;;;;;;4167329;28;19907;-82
2023/09/20 07:10:53;;;;;;;;;;;16.80;82.60;;;;;;4161010;28;19948;-82
2023/09/20 07:13:17;;;;;;;;;;;16.90;83.40;;;;;;4151712;28;19940;-83
2023/09/20 07:15:37;;;;;;;;;;;16.90;83.50;;;;;;4149693;28;19920;-83
2023/09/20 07:18:00;;;;;;;;;;;16.90;82.70;;;;;;4156602;28;20381;-82
2023/09/20 07:20:20;;;;;;;;;;;16.90;82.80;;;;;;4147502;28;19920;-82
2023/09/20 07:22:41;;;;;;;;;;;16.90;82.80;;;;;;4158245;28;20017;-83
2023/09/20 07:25:05;;;;;;;;;;;17.00;83.00;;;;;;4161034;28;19924;-84
2023/09/20 07:27:24;;;;;;;;;;;16.90;83.10;;;;;;4162762;28;20442;-84
2023/09/20 07:29:44;;;;;;;;;;;17.00;83.20;;;;;;4163506;28;19916;-84
2023/09/20 07:32:04;;;;;;;;;;;17.00;83.00;;;;;;4144297;28;20017;-84
2023/09/20 07:34:23;;;;;;;;;;;17.00;83.10;;;;;;4158967;28;19975;-84
2023/09/20 07:36:49;;;;;;;;;;;17.10;83.40;;;;;;4160355;28;19967;-84
2023/09/20 07:39:10;;;;;;;;;;;17.10;83.30;;;;;;4144426;28;19921;-84
2023/09/20 07:41:29;;;;;;;;;;;17.20;83.30;;;;;;4162361;28;19971;-85
2023/09/20 07:43:50;;;;;;;;;;;17.20;83.30;;;;;;4164776;28;19924;-85
2023/09/20 07:46:13;;;;;;;;;;;17.20;83.40;;;;;;4145941;28;19979;-85
2023/09/20 07:48:33;;;;;;;;;;;17.30;83.60;;;;;;4163363;28;20428;-84
2023/09/20 07:50:53;;;;;;;;;;;17.40;83.60;;;;;;4162610;28;19928;-84
2023/09/20 07:53:15;;;;;;;;;;;17.40;83.70;;;;;;4147912;28;19956;-84
2023/09/20 07:55:34;;;;;;;;;;;17.40;84.30;;;;;;4156404;28;19921;-84
2023/09/20 07:57:58;;;;;;;;;;;17.50;83.40;;;;;;4151251;28;20319;-84
2023/09/20 08:00:17;;;;;;;;;;;17.50;83.30;;;;;;4161481;28;19958;-84
2023/09/20 08:02:38;;;;;;;;;;;17.60;83.30;;;;;;4147695;28;19965;-85
2023/09/20 08:04:58;;;;;;;;;;;17.60;83.10;;;;;;4157732;28;20027;-84
2023/09/20 08:07:17;;;;;;;;;;;17.70;83.20;;;;;;4161614;28;19951;-85
2023/09/20 08:09:37;;;;;;;;;;;17.70;83.00;;;;;;4157390;28;20014;-83
2023/09/20 08:12:02;;;;;;;;;;;17.70;82.70;;;;;;4163384;28;20344;-84
2023/09/20 08:14:21;;;;;;;;;;;17.70;82.10;;;;;;4157331;28;19972;-84
2023/09/20 08:16:42;;;;;;;;;;;17.80;82.10;;;;;;4157043;28;20402;-84
2023/09/20 08:19:10;;;;;;;;;;;17.80;82.20;;;;;;4156712;28;19971;-85
2023/09/20 08:21:32;;;;;;;;;;;17.80;82.00;;;;;;4161019;28;20286;-85
2023/09/20 09:00:52;;;;;;;;;;;18.00;79.40;;;;;;4180291;28;21072;-85
2023/09/20 09:03:12;;;;;;;;;;;18.00;79.50;;;;;;4147812;28;19977;-83
2023/09/20 09:05:31;;;;;;;;;;;18.00;79.70;;;;;;4160432;28;20003;-86
2023/09/20 09:07:50;;;;;;;;;;;18.10;79.80;;;;;;4157862;28;19920;-85
2023/09/20 09:10:13;;;;;;;;;;;18.10;79.70;;;;;;4160688;28;19937;-84
2023/09/20 09:12:33;;;;;;;;;;;18.10;80.50;;;;;;4155526;28;20047;-85
2023/09/20 09:14:55;;;;;;;;;;;18.20;79.70;;;;;;4160707;28;20124;-85
2023/09/20 09:17:16;;;;;;;;;;;18.10;79.30;;;;;;4150766;28;20283;-85
2023/09/20 09:19:35;;;;;;;;;;;18.20;79.10;;;;;;4151340;28;19975;-85
2023/09/20 09:21:58;;;;;;;;;;;18.20;78.70;;;;;;4163237;28;20545;-86
2023/09/20 09:24:18;;;;;;;;;;;18.20;78.50;;;;;;4160021;28;19924;-85
2023/09/20 09:26:38;;;;;;;;;;;18.30;78.90;;;;;;4162589;28;20633;-86
2023/09/20 09:28:57;;;;;;;;;;;18.30;78.40;;;;;;4163101;28;19959;-87
2023/09/20 09:31:17;;;;;;;;;;;18.30;78.60;;;;;;4160559;28;19924;-85
2023/09/20 09:33:37;;;;;;;;;;;18.40;78.50;;;;;;4146425;28;19948;-85
2023/09/20 09:35:57;;;;;;;;;;;18.50;78.20;;;;;;4164418;28;19924;-85
2023/09/20 09:38:20;;;;;;;;;;;18.40;77.50;;;;;;4181548;28;19932;-85
2023/09/20 09:41:00;;;;;;;;;;;18.40;77.80;;;;;;4159400;28;19928;-86
2023/09/20 09:43:15;;;;;;;;;;;18.40;77.20;;;;;;4139636;28;19913;-84
2023/09/20 09:45:28;;;;;;;;;;;18.40;77.30;;;;;;4141667;28;20438;-83
2023/09/20 09:47:30;;;;;;;;;;;18.40;76.70;;;;;;4126593;28;19910;-84
2023/09/20 09:49:30;;;;;;;;;;;18.40;77.00;;;;;;4142126;28;20458;-85
2023/09/20 09:51:33;;;;;;;;;;;18.50;77.30;;;;;;4142463;28;19917;-86
2023/09/20 09:53:41;;;;;;;;;;;18.50;77.00;;;;;;4134146;28;20304;-87
2023/09/20 09:55:42;;;;;;;;;;;18.50;77.20;;;;;;4142695;28;19941;-83
2023/09/20 09:58:08;;;;;;;;;;;18.40;76.30;;;;;;4156060;28;19960;-85
2023/09/20 10:00:29;;;;;;;;;;;18.50;76.40;;;;;;4146382;28;19913;-84
2023/09/20 10:02:35;;;;;;;;;;;18.50;76.70;;;;;;4136097;28;19910;-86
2023/09/20 10:04:59;;;;;;;;;;;18.50;76.80;;;;;;4161094;28;19949;-85
2023/09/20 10:07:22;;;;;;;;;;;18.60;76.60;;;;;;4161591;28;20004;-83
2023/09/20 10:09:48;;;;;;;;;;;18.60;76.40;;;;;;4143000;28;19968;-85
2023/09/20 10:12:10;;;;;;;;;;;18.70;76.40;;;;;;4159186;28;20529;-86
2023/09/20 10:14:11;;;;;;;;;;;18.70;76.30;;;;;;4144904;28;19918;-84
2023/09/20 10:16:32;;;;;;;;;;;18.80;76.30;;;;;;4143088;28;19920;-84
2023/09/20 10:18:53;;;;;;;;;;;18.90;76.40;;;;;;4157604;28;19921;-83
2023/09/20 10:21:16;;;;;;;;;;;18.90;76.10;;;;;;4141696;28;19927;-84
2023/09/20 10:23:42;;;;;;;;;;;18.90;75.60;;;;;;4149916;28;20008;-86
2023/09/20 10:26:01;;;;;;;;;;;18.90;75.70;;;;;;4156090;28;20287;-84
2023/09/20 10:28:24;;;;;;;;;;;19.00;75.10;;;;;;4158462;28;19917;-85
2023/09/20 10:31:02;;;;;;;;;;;19.00;74.90;;;;;;4159533;28;20378;-85
2023/09/20 10:33:04;;;;;;;;;;;19.00;74.90;;;;;;4142547;28;19913;-86
2023/09/20 10:35:33;;;;;;;;;;;19.00;74.80;;;;;;4157888;28;20024;-85
2023/09/20 10:37:58;;;;;;;;;;;19.10;74.20;;;;;;4160406;28;19924;-85
2023/09/20 10:40:19;;;;;;;;;;;19.10;74.30;;;;;;4163617;28;19913;-86
2023/09/20 10:42:50;;;;;;;;;;;19.10;73.40;;;;;;4161616;28;20648;-85
2023/09/20 10:44:58;;;;;;;;;;;19.10;74.00;;;;;;4133167;28;19928;-84
2023/09/20 10:47:19;;;;;;;;;;;19.10;74.30;;;;;;4180499;28;19897;-86
2023/09/20 10:49:40;;;;;;;;;;;19.20;74.50;;;;;;4180227;28;19960;-85
2023/09/20 10:52:03;;;;;;;;;;;19.10;74.00;;;;;;4184244;28;19930;-86
2023/09/20 10:54:29;;;;;;;;;;;19.10;74.20;;;;;;4158613;28;19926;-86
2023/09/20 10:56:54;;;;;;;;;;;19.10;74.40;;;;;;4168824;28;19901;-85
2023/09/20 10:59:18;;;;;;;;;;;19.20;74.80;;;;;;4179190;28;19980;-86
2023/09/20 11:01:39;;;;;;;;;;;19.20;74.50;;;;;;4163268;28;19926;-86
2023/09/20 11:03:59;;;;;;;;;;;19.20;74.80;;;;;;4158456;28;20382;-86
2023/09/20 11:06:21;;;;;;;;;;;19.20;74.50;;;;;;4160277;28;19993;-85
2023/09/20 11:08:43;;;;;;;;;;;19.30;74.40;;;;;;4161051;28;19917;-85
2023/09/20 11:11:06;;;;;;;;;;;19.30;74.20;;;;;;4148860;28;19953;-85
2023/09/20 11:13:28;;;;;;;;;;;19.30;74.40;;;;;;4144477;28;20408;-87
2023/09/20 11:15:48;;;;;;;;;;;19.30;74.20;;;;;;4148123;28;20387;-87
2023/09/20 11:18:09;;;;;;;;;;;19.40;74.30;;;;;;4161302;28;20027;-86
2023/09/20 11:20:31;;;;;;;;;;;19.30;74.30;;;;;;4162454;28;20207;-85
2023/09/20 11:22:52;;;;;;;;;;;19.40;74.40;;;;;;4153502;28;20270;-86
2023/09/20 11:25:05;;;;;;;;;;;19.40;74.30;;;;;;4128045;28;19914;-86
2023/09/20 11:27:08;;;;;;;;;;;19.50;74.50;;;;;;4126173;28;19914;-85
2023/09/20 11:29:11;;;;;;;;;;;19.50;74.40;;;;;;4154694;28;20016;-86
2023/09/20 11:31:37;;;;;;;;;;;19.50;73.70;;;;;;4157585;28;20385;-87
2023/09/20 11:33:59;;;;;;;;;;;19.50;73.70;;;;;;4155388;28;19979;-86
2023/09/20 11:36:22;;;;;;;;;;;19.60;74.00;;;;;;4156392;28;20425;-85
2023/09/20 11:38:42;;;;;;;;;;;19.60;73.60;;;;;;4154722;28;19913;-85
2023/09/20 11:41:10;;;;;;;;;;;19.60;73.50;;;;;;4143601;28;20403;-86
2023/09/20 11:43:31;;;;;;;;;;;19.70;74.00;;;;;;4153903;28;20456;-86
2023/09/20 11:45:53;;;;;;;;;;;19.70;74.10;;;;;;4156338;28;19957;-84
2023/09/20 11:48:15;;;;;;;;;;;19.80;72.60;;;;;;4142427;28;19914;-87
2023/09/20 11:50:41;;;;;;;;;;;19.80;73.00;;;;;;4160402;28;20442;-86
2023/09/20 11:53:05;;;;;;;;;;;19.80;73.10;;;;;;4141787;28;20413;-87
2023/09/20 11:59:14;;;;;;;;;;;19.80;72.40;;;;;;4144246;22;20024;-86
2023/09/20 12:01:42;;;;;;;;;;;19.80;72.50;;;;;;4040183;29;19954;-87
2023/09/20 12:04:06;;;;;;;;;;;19.80;72.60;;;;;;4053052;29;20464;-87
2023/09/20 12:06:30;;;;;;;;;;;19.80;72.60;;;;;;4050423;29;19919;-87
2023/09/20 12:08:52;;;;;;;;;;;19.80;72.60;;;;;;4064334;29;20410;-86
2023/09/20 12:11:13;;;;;;;;;;;19.80;72.50;;;;;;4066034;29;20364;-86
2023/09/20 12:13:34;;;;;;;;;;;19.80;72.40;;;;;;4061762;29;19926;-87
2023/09/20 12:15:55;;;;;;;;;;;19.80;71.70;;;;;;4066318;29;20333;-86
2023/09/20 12:18:19;;;;;;;;;;;19.70;70.20;;;;;;4056548;29;20544;-86
2023/09/20 12:20:39;;;;;;;;;;;19.80;71.20;;;;;;4052014;29;19919;-88
2023/09/20 12:23:00;;;;;;;;;;;19.80;71.70;;;;;;4079326;28;19923;-86
2023/09/20 12:25:21;;;;;;;;;;;19.80;72.00;;;;;;4089289;28;19929;-85
2023/09/20 12:27:43;;;;;;;;;;;19.80;71.50;;;;;;4086452;28;19939;-85
2023/09/20 12:30:04;;;;;;;;;;;19.80;71.00;;;;;;4065783;29;19920;-87
2023/09/20 12:32:25;;;;;;;;;;;19.70;71.30;;;;;;4087845;28;19907;-86
2023/09/20 12:34:46;;;;;;;;;;;19.70;71.00;;;;;;4070769;29;19986;-87
2023/09/20 12:37:06;;;;;;;;;;;19.70;70.90;;;;;;4065307;29;20393;-87
2023/09/20 12:39:27;;;;;;;;;;;19.70;70.20;;;;;;4123150;28;19918;-85
2023/09/20 12:41:48;;;;;;;;;;;19.70;69.20;;;;;;4122908;28;20454;-86
2023/09/20 12:44:09;;;;;;;;;;;19.70;70.20;;;;;;4112584;28;20281;-88
2023/09/20 12:46:31;;;;;;;;;;;19.70;70.60;;;;;;4120546;28;19980;-88
2023/09/20 12:48:52;;;;;;;;;;;19.70;70.60;;;;;;4122439;28;19964;-87
2023/09/20 12:51:12;;;;;;;;;;;19.70;71.20;;;;;;4109899;28;19930;-87
2023/09/20 12:53:33;;;;;;;;;;;19.70;70.30;;;;;;4124401;28;20324;-87
2023/09/20 12:55:54;;;;;;;;;;;19.70;70.20;;;;;;4123196;28;20436;-86
2023/09/20 12:58:16;;;;;;;;;;;19.80;70.60;;;;;;4119843;28;20585;-86
2023/09/20 13:00:18;;;;;;;;;;;19.80;70.70;;;;;;4125806;28;19914;-87
2023/09/20 13:02:19;;;;;;;;;;;19.80;71.20;;;;;;4091038;28;19918;-88
2023/09/20 13:04:20;;;;;;;;;;;19.90;70.70;;;;;;4109560;28;20767;-85
2023/09/20 13:06:21;;;;;;;;;;;19.90;71.10;;;;;;4094442;28;19926;-86
2023/09/20 13:08:25;;;;;;;;;;;20.00;71.30;;;;;;4108672;28;19993;-86
2023/09/20 13:10:26;;;;;;;;;;;20.00;71.40;;;;;;4094335;28;20814;-86
2023/09/20 13:12:27;;;;;;;;;;;20.10;71.30;;;;;;4106930;28;20350;-87
2023/09/20 13:14:30;;;;;;;;;;;20.10;71.60;;;;;;4094933;28;20022;-87
2023/09/20 13:16:30;;;;;;;;;;;20.20;71.70;;;;;;4110789;28;20414;-86
2023/09/20 13:18:36;;;;;;;;;;;20.20;71.60;;;;;;4105466;28;19914;-87
2023/09/20 13:20:40;;;;;;;;;;;20.20;70.90;;;;;;4111293;28;19918;-86
2023/09/20 13:22:52;;;;;;;;;;;20.30;70.90;;;;;;4105609;28;19933;-87
2023/09/20 13:24:53;;;;;;;;;;;20.30;71.10;;;;;;4121593;28;19947;-87
2023/09/20 13:26:53;;;;;;;;;;;20.40;71.00;;;;;;4106986;28;20426;-86
2023/09/20 13:28:55;;;;;;;;;;;20.40;71.20;;;;;;4094634;28;19970;-86
2023/09/20 13:30:56;;;;;;;;;;;20.40;70.50;;;;;;4120610;28;19924;-87
2023/09/20 13:32:57;;;;;;;;;;;20.50;70.90;;;;;;4097929;28;20029;-87
2023/09/20 13:34:57;;;;;;;;;;;20.50;70.40;;;;;;4109663;28;19961;-85
2023/09/20 13:36:58;;;;;;;;;;;20.50;69.60;;;;;;4123603;28;19921;-85
2023/09/20 13:38:59;;;;;;;;;;;20.60;70.20;;;;;;4107666;28;20432;-86